cliquez pour ajouter le site Runraid à vos favoris  English version (google)  Retour à l'accueil Ecrire à l'auteur du site Runraid : Michel Jourdan



Les prochaines courses


Les derniers résultats

cliquez pour visualiser la page complète relatant la chronologie des éruptions du Piton de la Fournaise
éruptions Piton de la Fournaise


Ile de La Réunion

 Diagonale des Fous 

Ecrire au créateur du site : Michel Jourdan
Contact


2016-08-15 - Foulées de Saint-Leu

Pour consulter le palmarès d'un coureur, un clic sur son nom !

Vous avez des remarques, corrections, ... sur ces résultats , un clic sur --> pour me transmettre toute information concernant les classements


Foulées de Saint-Leu - 2016 : classement des 291 finishers
Place Nom Temps Cat. Club Sexe Clt/cat.
Place Nom Temps Cat. Club Sexe Clt/cat.
1 TSANG CHUN SZE laurent 00:33:05 ESM M 129
2 MARC FRANCK 00:33:40 SEM ACSP M 214
3 CHEONG YUEN ZING GUILLAUME 00:34:00 SEM CAPOSS M 2 SEM 21
4 BARRET BENJAMIN 00:34:11 V1M CASM M 1 V1M 156
5 GONTHIER CEDRIC 00:34:31 SEM TCSA M 3 SEM 185
6 BOUFARIHA Abdel Jalil 00:35:18 V1M CASM M 2 V1M 319
7 GEOFFROY FRANCK 00:36:00 V2M DA M 1 V2M 138
8 VASSOR CEDRIC 00:36:11 SEM M 4 SEM 58
9 NOEL Yannick 00:36:18 SEM M 5 SEM 175
10 DAMOUAR Ludovic 00:36:41 SEM M 6 SEM 297
11 JOANY Emmanuel 00:36:59 SEM M 7 SEM 266
12 GRIMAUD David 00:37:02 V1M M 3 V1M 257
13 NARSOU JEAN CLAUDE MAT 00:37:09 SEM RDB M 8 SEM 182
14 DUVEAU Joseph 00:37:12 SEM M 9 SEM 29
15 BOYER Florent 00:37:23 ESM M 2 ESM 243
16 GIRAUDET PATRICK 00:37:25 V1M RUN O2 974 M 4 V1M 148
17 BESCOND BENJAMIN 00:37:33 SEM DA M 10 SEM 86
18 LEBON Damien 00:38:04 SEM M 11 SEM 300
19 PAUL JEAN MICHEL 00:38:13 SEM COSPI M 12 SEM 165
20 METRO Emma 00:38:14 SEF F 1ere F 164
21 CLAUDIN MICHAEL 00:38:17 SEM COSPI M 13 SEM 180
22 GARCIN Jean Emile 00:38:22 SEM M 14 SEM 183
23 LOCK KOON Bruno 00:38:49 SEM M 15 SEM 116
24 ELLAMA Roland 00:38:54 V2M AVAD M 2 V2M 250
25 FATOL Thierry 00:38:58 SEM M 16 SEM 254
26 ETHEVE JACKY 00:39:07 SEM DA M 17 SEM 115
27 SERY NICOLAS 00:39:36 SEM M 18 SEM 225
28 LEBON Stephane 00:39:36 V1M M 5 V1M 5
29 METRO LORY 00:39:42 SEM M 19 SEM 27
30 FETISOI Jeremie 00:39:44 SEM M 20 SEM 252
31 BARET Frederic 00:39:46 V1M M 6 V1M 240
32 TERRENTROY Guillaume 00:39:48 ESM M 3 ESM 209
33 VITRY Dany Joseph 00:39:59 V2M M 3 V2M 301
34 DUBOIS Vivien 00:40:02 ESM AC ST-LEU M 4 ESM 307
35 RANGANAYAGUY Stephane 00:40:02 SEM RUN O2 974 M 21 SEM 315
36 MOREL Clement 00:40:03 CAM M 1 CAM 273
37 ATTOUMANE SALIM 00:40:04 ESM ACSP M 5 ESM 194
38 JANIS bruno 00:40:14 V1M M 7 V1M 130
39 FRANcOIS Eric 00:40:20 SEM M 22 SEM 145
40 BARET HYANIS 00:40:27 V1M DA M 8 V1M 204
41 GERMAIN Jean David 00:40:28 SEM M 23 SEM 258
42 COURBOT THIBAULT 00:40:29 SEM M 24 SEM 188
43 MASSAIN Jacques 00:40:32 V2M M 4 V2M 277
44 MOLINIER XAVIER 00:40:32 SEM RUN'A M 25 SEM 147
45 RIQUIER CEDRIC 00:40:39 SEM M 26 SEM 140
46 VANDENESSE Armand 00:40:40 V1M M 9 V1M 294
47 HOARAU Damien 00:40:47 JUM M 1 JUM 196
48 JIBANE Didier 00:40:51 V1M M 10 V1M 263
49 KONDOKI jean claude 00:40:52 V2M M 5 V2M 203
50 DAVID Vincent 00:40:53 V1M M 11 V1M 3
51 ETANGSALE Cedric 00:40:53 CAM M 2 CAM 79
52 VITRY JEAN HUGUES 00:40:57 V2M CCF RIV M 6 V2M 222
53 JACQUET Eddy 00:40:59 V1M M 12 V1M 264
54 CORNAGLIA jerome 00:41:06 SEM M 27 SEM 153
55 FABRICE Boulanger 00:41:28 SEM M 28 SEM 44
56 OMARJEE sulliman 00:41:44 V2M M 7 V2M 67
57 CASTAGNETTI CHRISTOPHE 00:42:13 V2M RUN O2 974 M 8 V2M 231
58 DIJOUX Damien 00:42:16 SEM M 29 SEM 114
59 ROLLAND Jean alix 00:42:23 V2M M 9 V2M 192
60 TIMALAMACOME Jean Sebastien 00:42:31 V1M M 13 V1M 289
61 JEANNEAU WILLY 00:42:36 V1M M 14 V1M 102
62 ARISTANGELE herve 00:42:44 V2M M 10 V2M 109
63 ETHEVE DAMIEN 00:42:44 SEM SJ2T M 30 SEM 119
64 ROCA David 00:42:46 SEM M 31 SEM 155
65 TOURE Jean Marc 00:42:48 V1M M 15 V1M 80
66 PHILEAS PASCAL 00:42:49 SEM RUN ODYSSEA M 32 SEM 150
67 LON MON POY Eric 00:42:55 V1M M 16 V1M 270
68 MARDEMOUTOU JEAN PIERRE 00:42:55 V2M M 11 V2M 74
69 MOREL Renald 00:42:57 V1M SJ2T M 17 V1M 298
70 HOAREAU jluc 00:42:58 V2M M 12 V2M 210
71 BENTALEB Dalila 00:43:00 V2F DSA F 2eme F / 1 V2F 162
72 CARO Patrice olivier 00:43:02 SEM M 33 SEM 31
73 GUERIN Thibault 00:43:05 SEM M 34 SEM 170
74 TURNER Nicolas 00:43:21 SEM M 35 SEM 4
75 REOUTE JACQUES 00:43:36 V2M M 13 V2M 235
76 NARSOU JEAN CLAUDE 00:43:50 V2M RDB M 14 V2M 184
77 AURE Yvon 00:44:00 V2M ACSP M 15 V2M 237
78 FLOUVAT SEBASTIEN 00:44:13 SEM M 36 SEM 100
79 COTTENET Charles 00:44:20 SEM M 37 SEM 95
80 DALLEAU JEAN PIERRE 00:44:25 V1M M 18 V1M 117
81 MOUTAMA Giovanny 00:44:27 V1M M 19 V1M 305
82 GAUTHIER ADRIEN 00:44:30 V1M DSA M 20 V1M 36
83 ROBERT Marie Aurelie 00:44:33 SEF F 3eme F / 2 SEF 178
84 AURAT PIERRE ALEXANDRE 00:44:38 SEM M 38 SEM 208
85 HOAREAU Pascal 00:44:40 SEM M 39 SEM 62
86 DIJOUX Wilfrid 00:44:44 V1M M 21 V1M 60
87 GARDENAT EMERIC 00:44:49 V1M M 22 V1M 132
88 CHARLES christophe 00:44:58 V1M M 23 V1M 20
89 MAILLOT Serges 00:45:02 V3M M 1 V3M 276
90 COMA Fabien 00:45:08 V1M M 24 V1M 35
91 BOOLAKY VANESSA 00:45:09 SEF F 4eme F / 3 SEF 91
92 OUVRARD FABRICE 00:45:18 V1M M 25 V1M 59
93 GALMAR Christophe 00:45:18 SEM M 40 SEM 26
94 TRAMONI Perrine 00:45:19 SEF F 5eme F / 4 SEF 317
95 JUMETZ Romain 00:45:20 SEM M 41 SEM 176
96 MERCIER jean luc 00:45:24 V2M M 16 V2M 13
97 LAFFORGUE BERNARD 00:45:29 V3M M 2 V3M 88
98 COULON BERTRAND 00:45:31 V1M RUN ODYSSEA M 26 V1M 166
99 HOARAU Ludovic 00:45:36 SEM M 42 SEM 179
100 FONTAINE JEAN STEPHANE 00:45:47 SEM DA M 43 SEM 154
101 DELAUNAY DIDIER 00:46:00 SEM CAPOSS M 44 SEM 193
102 LE COQ Yvonnick 00:46:03 SEM M 45 SEM 10
103 AURE PATRICK 00:46:04 V2M OUESTRAIL M 17 V2M 206
104 BATAILLE Mathieu 00:46:12 SEM M 46 SEM 190
105 NATIVEL ERIC 00:46:18 SEM M 47 SEM 69
106 PERRETTE romain 00:46:19 SEM M 48 SEM 89
107 CADET Jonathan 00:46:20 SEM M 49 SEM 302
108 PAYET JOSEPH YVES 00:46:32 V3M M 3 V3M 113
109 ABOULKER Cyril 00:46:34 SEM M 50 SEM 92
110 ROCROU YOHAN 00:46:37 ESM M 6 ESM 227
111 LALA SALMA 00:46:38 SEF CSSDA F 6eme F / 5 SEF 30
112 SILOTIA Fabrice 00:46:42 SEM M 51 SEM 318
113 GENDRE Nicolas 00:46:42 SEM M 52 SEM 15
114 GENTILHOMME Audrey 00:46:48 SEF F 7eme F / 6 SEF 316
115 RECHE Bernard 00:47:32 V1M M 27 V1M 171
116 ADRIEN Nicolas 00:47:42 SEM M 53 SEM 236
117 LAURENT Thomas 00:47:49 SEM M 54 SEM 111
118 ETHEVE LOIC 00:47:52 ESM COSPI M 7 ESM 82
119 ETANGSALE Jean Marc 00:47:53 V1M M 28 V1M 81
120 CERVEAUX David 00:47:57 V1M M 29 V1M 244
121 BAZALINE Jerome 00:47:58 ESM M 8 ESM 139
122 MINIAMA MARIE LAURE 00:48:07 SEF F 8eme F / 7 SEF 45
123 PIERRE AGNES 00:48:08 V1F ACSP F 9eme F / 1 V1F 65
124 CLAIN david 00:48:10 V2M M 18 V2M 94
125 VOLTIGE johan 00:48:11 SEM M 55 SEM 52
126 ITEMA Nathalie 00:48:13 V1F F 10eme F / 2 V1F 18
127 GRENIER JEAN PATRICK 00:48:15 SEM M 56 SEM 220
128 NEMORIN Mickael 00:48:19 SEM M 57 SEM 278
129 AJORQUE david 00:48:24 SEM M 58 SEM 85
130 TRUSSON Robinson 00:48:27 SEM M 59 SEM 181
131 PANGLOSSE Fred 00:48:30 SEM M 60 SEM 149
132 BOITARD Pierrot 00:48:45 SEM M 61 SEM 242
133 CHAGNAUD JUSTINE 00:48:47 CAF ACSP F 11eme F / 1 CAF 121
134 DEJEAN Frederic 00:48:51 V1M M 30 V1M 312
135 SANGARIN Jean Philippe 00:48:54 V2M M 19 V2M 287
136 VANDESTEENE aurelien 00:48:56 SEM M 62 SEM 169
137 LALLEMAND ANNIE 00:48:58 V1F CALS SUD F 12eme F / 3 V1F 198
138 SELLY BERNARD 00:48:59 V1M CALS SUD M 31 V1M 219
139 ALBION damien 00:49:06 V1M M 32 V1M 78
140 CHEVALIER Jean Ulrich 00:49:14 SEM M 63 SEM 159
141 DEBRAY Gabriel 00:49:23 V1M M 33 V1M 146
142 RADOUL kevin 00:49:27 SEM M 64 SEM 108
143 AH VOUNE WALTER 00:49:42 V1M CALS SUD M 34 V1M 197
144 MOREL Jean Max 00:49:50 V2M M 20 V2M 272
145 FERARD guy rodrigue 00:49:58 SEM M 65 SEM 28
146 PERRINE MARIE ODILE 00:50:03 V1F OUESTRAIL F 13eme F / 4 V1F 157
147 ALICALAPA Yannick 00:50:12 V1M CCF RIV M 35 V1M 311
148 BALLESTER Richard 00:50:14 V3M M 4 V3M 241
149 PANTALEON Jean 00:50:18 V2M M 21 V2M 283
150 FONTAINE Jean Marc 00:50:19 V3M DA M 5 V3M 251
151 SANTI Nina 00:50:28 CAF F 14eme F / 2 CAF 285
152 LEAR Gregory 00:50:42 SEM M 66 SEM 25
153 JANIN ANNE Cecile 00:50:43 V1F F 15eme F / 5 V1F 8
154 MULA Bernard 00:50:50 V2M M 22 V2M 275
155 TANTALE Olivier 00:50:56 SEM M 67 SEM 33
156 CATOUARIA Jean paul 00:51:09 V3M M 6 V3M 133
157 FRANCOISE Alain 00:51:09 V2M M 23 V2M 41
158 KIEVITS Alyssa 00:51:11 SEF F 16eme F / 8 SEF 112
159 FIGUESTER Jean Paul 00:51:11 V2M ACSP M 24 V2M 253
160 PIGNOLET Paul 00:51:12 V1M M 36 V1M 282
161 FROU johann 00:51:17 V1M M 37 V1M 49
162 GAUTHERIN Nathalie 00:51:18 V2F F 17eme F / 2 V2F 174
163 ITEMA JEREMIE 00:51:19 SEM M 68 SEM 152
164 RAHIM KHAN BILKISS 00:51:21 V2F F 18eme F / 3 V2F 128
165 TANGAMOUTOU Jason 00:51:22 SEM M 69 SEM 137
166 DIVERRES Mikael 00:51:25 SEM M 70 SEM 11
167 ZIN Jamel 00:51:29 SEM M 71 SEM 195
168 DE CHEVRON SEBASTIEN 00:51:30 SEM M 72 SEM 172
169 VASSOR LUDOVIC 00:51:31 SEM M 73 SEM 161
170 PAYET Herve 00:51:31 SEM M 74 SEM 212
171 CReMONeSI Celine 00:51:36 SEF F 19eme F / 9 SEF 187
172 PANTALEON Laurent 00:51:38 V1M M 38 V1M 284
173 LON MON POY Patrick 00:51:51 V1M M 39 V1M 271
174 VOLTIGE YANNIS 00:52:00 SEM M 75 SEM 101
175 PELLETIER Mathieu 00:52:01 SEM M 76 SEM 23
176 PAYET eric 00:52:12 V1M M 40 V1M 7
177 AUBIN jean denis 00:52:23 V1M M 41 V1M 34
178 BeGUE Alexandre 00:52:30 SEM M 77 SEM 76
179 ZELA Marie Francie 00:52:41 SEF USPGA F 20eme F / 10 SEF 310
180 DENNEMONT Patrick 00:52:42 V1M M 42 V1M 296
181 DIJOUX benjamin 00:52:47 CAM M 3 CAM 127
182 PERSEE Betty 00:52:48 V1F F 21eme F / 6 V1F 295
183 CHEVALIER Stephane 00:52:55 V1M M 43 V1M 158
184 LALA ABDOULLAH 00:52:56 V1M M 44 V1M 234
185 WEIGEL FREDERIQUE EVA 00:52:59 SEF F 22eme F / 11 SEF 110
186 NGUYEN DUY sebastien 00:53:21 V1M M 45 V1M 48
187 VU VAN Aurore 00:53:24 SEF F 23eme F / 12 SEF 63
188 LAPIERRE Florence 00:53:25 SEF F 24eme F / 13 SEF 38
189 LAURET Jean Eric 00:53:31 SEM M 78 SEM 268
190 LIZEKNE MAURICIANNE 00:53:35 V2F ACSP F 25eme F / 4 V2F 173
191 ETHEVE JEAN CLAUDE 00:53:35 V2M M 25 V2M 131
192 HOARAU Brice 00:53:44 V1M M 46 V1M 54
193 ROCROU CHRISTIAN 00:53:45 SEM M 79 SEM 226
194 CALOGINE nicolas 00:53:48 SEM M 80 SEM 123
195 TOUSSAINT Jonathan 00:53:59 SEM M 81 SEM 17
196 ROCHEFEUILLE NOEL 00:54:01 V2M M 26 V2M 47
197 KOZLOVSKY Laurent 00:54:13 V1M M 47 V1M 304
198 SILOTIA Benedicte 00:54:19 ESF F 26eme F / 1 ESF 143
199 TEISSIER Emmanuelle 00:54:20 SEF F 27eme F / 14 SEF 61
200 FOURNEL Eric 00:54:24 V2M M 27 V2M 314
201 COMA CECILE 00:54:25 SEF F 28eme F / 15 SEF 37
202 TRECHOT Vanessa 00:54:30 SEF F 29eme F / 16 SEF 104
203 CHAGNAUD ANGELIQUE 00:54:49 V1F F 30eme F / 7 V1F 122
204 SOUCHON Aude 00:54:59 SEF F 31eme F / 17 SEF 292
205 LEBRETON ANNABEL 00:55:04 SEF F 32eme F / 18 SEF 142
206 AURE Michele M Josee 00:55:07 V2F ACSP F 33eme F / 5 V2F 238
207 HOAREAU Guillaume 00:55:11 SEM M 82 SEM 83
208 MORADA Caroline 00:55:13 V1F F 34eme F / 8 V1F 42
209 BOULANGER FLORENCE 00:55:19 V1F CAPP F 35eme F / 9 V1F 228
210 HOAREAU HARRY CLAUDE 00:55:26 V2M CALS SUD M 28 V2M 135
211 SINAPAYEL Marie Audrey 00:55:32 SEF F 36eme F / 19 SEF 291
212 PONIN Sida 00:55:35 SEF F 37eme F / 20 SEF 39
213 ALAUX ENZO 00:55:54 CAM ACSP M 4 CAM 57
214 MACIA Jennifer 00:56:06 SEF F 38eme F / 21 SEF 40
215 MDJASSIRI Achata 00:56:15 V1F F 39eme F / 10 V1F 274
216 PAYET Philippe 00:56:17 SEM M 83 SEM 53
217 LALA SCHOEEB 00:56:30 V1M M 48 V1M 233
218 VILLARD FABRICE 00:56:36 V1M CALS SUD M 49 V1M 64
219 DALBY Ove Christian 00:56:41 SEM M 84 SEM 124
220 BALENCOURT CHRISTINE 00:56:59 V1F F 40eme F / 11 V1F 98
221 BALENCOURT DIDIER 00:56:59 V1M RUN'A M 50 V1M 99
222 GRONDIN Elodie 00:57:03 SEF F 41eme F / 22 SEF 309
223 PEDRE ISABELLE 00:57:10 SEF F 42eme F / 23 SEF 232
224 DAFREVILLE Kelly 00:57:11 SEF F 43eme F / 24 SEF 43
225 TAOCHY Nicolas 00:57:16 SEM M 85 SEM 177
226 GINOT Daniele 00:57:27 V1F F 44eme F / 12 V1F 255
227 HOARAU veronique 00:57:29 SEF F 45eme F / 25 SEF 96
228 GOMARD Philippe 00:57:31 V2M M 29 V2M 303
229 BIDAN annie lea 00:57:35 V2F F 46eme F / 6 V2F 22
230 JACQUET Valerie 00:57:39 V1F F 47eme F / 13 V1F 265
231 OUDART Norbert 00:57:40 V2M M 30 V2M 279
232 YAMI Eric 00:57:41 V2M AC ST-LEU M 31 V2M 306
233 CORMIER clement 00:58:09 SEM M 86 SEM 16
234 AH SANE Eddy 00:58:13 SEM M 87 SEM 160
235 CASTEL MARIE CATHY 00:58:30 SEF F 48eme F / 26 SEF 24
236 ADRIEN Giovany 00:58:37 SEM M 88 SEM 290
237 ILPONSE sophie 00:58:41 V1F F 49eme F / 14 V1F 167
238 ROLAND didier 00:59:29 V2M M 32 V2M 126
239 CADAR Olivia 00:59:43 SEF F 50eme F / 27 SEF 75
240 ABLANCOURT MARIE LOURDES 00:59:55 V2F CALS SUD F 51eme F / 7 V2F 224
241 CLAIN Frederic 01:00:12 SEM M 89 SEM 151
242 REBOUL Christophe 01:00:12 SEM M 90 SEM 125
243 BOUCICAUD Florence 01:00:13 V1F F 52eme F / 15 V1F 97
244 MELGET Geraldine 01:00:23 V1F F 53eme F / 16 V1F 120
245 BRUNET Aurelia 01:00:23 SEF F 54eme F / 28 SEF 136
246 BEAUPAGE FABIOLA 01:00:35 V1F CALS SUD F 55eme F / 17 V1F 46
247 BENCHERIF MARTINE 01:00:52 V1F F 56eme F / 18 V1F 77
248 BARBAZA jean paul 01:01:11 SEM M 91 SEM 6
249 TUSSEAU ANNE LAURE 01:01:11 SEF F 57eme F / 29 SEF 19
250 BRIERE Gregory 01:01:17 SEM M 92 SEM 308
251 SCAIFE Joel 01:01:20 SEM M 93 SEM 84
252 MONTMESSIN ALEXANDRA 01:01:31 SEF DSA F 58eme F / 30 SEF 141
253 ZEGANADIN Micky 01:01:32 V1F F 59eme F / 19 V1F 73
254 GRONDIN BEATRICE LINDA 01:01:36 V1F F 60eme F / 20 V1F 221
255 LAURET Joelle 01:01:41 SEF F 61eme F / 31 SEF 12
256 BRACKELAIRE Gaelle 01:01:59 SEF F 62eme F / 32 SEF 72
257 BOYER PASCALINE 01:02:09 V2F CALS SUD F 63eme F / 8 V2F 134
258 BIVAUD Anne Christine 01:02:11 V2F F 64eme F / 9 V2F 299
259 MARUCCIA Maxime 01:02:16 SEM M 94 SEM 56
260 HEDIN SYLVIE 01:03:14 V1F ADISS F 65eme F / 21 V1F 189
261 LEPINE Elodie 01:03:20 SEF F 66eme F / 33 SEF 71
262 GINOT Elisa 01:03:24 CAF F 67eme F / 3 CAF 256
263 RIVIERE Kathy 01:03:29 SEF F 68eme F / 34 SEF 106
264 DIEUDONNE Caroline 01:03:39 SEF F 69eme F / 35 SEF 247
265 LEBRET Melanie 01:03:42 SEF F 70eme F / 36 SEF 90
266 VAR lucas 01:03:42 V3M M 7 V3M 205
267 ALBELDA clarisse 01:04:21 SEF F 71eme F / 37 SEF 87
268 CORBICE CELINE 01:04:30 V1F CASL F 72eme F / 22 V1F 1
269 HOAREAU M arie Sylvie 01:05:05 SEF F 73eme F / 38 SEF 262
270 RAVENNES Fabienne 01:05:30 SEF F 74eme F / 39 SEF 103
271 BEONEL M. Jeannine 01:05:36 V1F F 75eme F / 23 V1F 105
272 NAUD GERARD 01:05:47 V4M M 1 V4M 168
273 CADAR Emeline 01:06:02 SEF F 76eme F / 40 SEF 144
274 DALLEAU RACHEL 01:06:20 CAF ACSP F 77eme F / 4 CAF 51
275 DALLEAU MARIE CATHERINE 01:06:33 V1F ACSP F 78eme F / 24 V1F 50
276 COUPAN Larissa Marie Tatiana 01:07:22 SEF F 79eme F / 41 SEF 55
277 MAHAUT GARANCE 01:07:48 V1F F 80eme F / 25 V1F 118
278 RAHIM KHAN AZIZE 01:08:36 V3M M 8 V3M 107
279 BARTHELEMY Hugues 01:08:46 V2M M 33 V2M 66
280 LEDOUX Melanie 01:09:24 SEF F 81eme F / 42 SEF 14
281 ABLANCOURT RENE PAUL 01:09:25 SEM CALS SUD M 95 SEM 223
282 GUIRAUD jean 01:09:42 V3M M 9 V3M 93
283 DROUIN Sophie 01:10:30 SEF F 82eme F / 43 SEF 2
284 GOULAMOUSSENE Indira 01:10:46 ESF F 83eme F / 2 ESF 70
285 LECOCQ ODILE 01:11:44 V1F F 84eme F / 26 V1F 229
286 DETCHART DOMINIQUE 01:11:44 V2M M 34 V2M 230
287 SANGARIN Leslie 01:11:55 SEF F 85eme F / 44 SEF 286
288 LEMOINE ANGELIQUE 01:11:59 SEF F 86eme F / 45 SEF 186
289 VARLET AGATHE 01:12:28 SEF F 87eme F / 46 SEF 68
290 CROUARD Sandra 01:14:31 V1F F 88eme F / 27 V1F 246
291 DE FLORE Corinne 01:15:40 V1F F 89eme F / 28 V1F 248


ReferencementCe site est listé dans la catégorie Sport : Sports extrêmes Dictionnaire
| Accueil | La Réunion  Vue du ciel | Météo | Cyclones | Volcan | Cirques de Mafate , Cilaos , Salazie | Photos Randonnées | Randonnées Réunion: Randos Espiègle , Courses montagne | Diagonale des Fous |  Marathon des Sables | Voyages Les stats du site | Fonds écran | Plan du site | Blog de runraid | Galerie photos Sport Réunion |